createdAt,value
2022-12-23T06:24:54.638Z,97486.54
2022-12-23T06:27:22.722Z,97479.81
2022-12-23T06:29:51.034Z,97478.08
2022-12-23T06:32:19.463Z,97472.23
2022-12-23T06:34:50.204Z,97475.52
2022-12-23T06:37:18.850Z,97467.90
2022-12-23T06:39:52.465Z,97463.34
2022-12-23T06:42:20.540Z,97468.42
2022-12-23T06:44:50.372Z,97475.83
2022-12-23T06:47:22.397Z,97481.11
2022-12-23T06:49:50.664Z,97484.38
2022-12-23T06:52:23.192Z,97482.84
2022-12-23T06:54:51.575Z,97483.73
2022-12-23T06:57:19.745Z,97483.92
2022-12-23T06:59:47.716Z,97484.77
2022-12-23T07:02:15.865Z,97485.80
2022-12-23T07:04:44.049Z,97491.66
2022-12-23T07:07:12.085Z,97494.22
2022-12-23T07:09:40.027Z,97490.52
2022-12-23T07:12:08.209Z,97493.39
2022-12-23T07:14:43.728Z,97494.44
2022-12-23T07:17:11.859Z,97496.55
2022-12-23T07:19:41.769Z,97485.52
2022-12-23T07:22:10.373Z,97470.80
2022-12-23T07:24:38.676Z,97461.67
2022-12-23T07:27:13.706Z,97470.11
2022-12-23T07:29:41.796Z,97480.52
2022-12-23T07:32:09.904Z,97493.31
2022-12-23T07:34:38.129Z,97494.83
2022-12-23T07:37:06.290Z,97492.05
2022-12-23T07:39:34.979Z,97490.88
2022-12-23T07:42:33.531Z,97485.23
2022-12-23T07:44:51.288Z,97483.61
2022-12-23T07:47:19.394Z,97486.09
2022-12-23T07:49:47.423Z,97490.80
2022-12-23T07:52:15.696Z,97486.06
2022-12-23T07:54:43.865Z,97493.23
2022-12-23T07:57:12.569Z,97496.44
2022-12-23T07:59:40.626Z,97498.91
2022-12-23T08:02:11.114Z,97496.38
2022-12-23T08:04:44.237Z,97499.81
2022-12-23T08:07:14.199Z,97500.23
2022-12-23T08:09:42.255Z,97500.58
2022-12-23T08:12:10.383Z,97502.69
2022-12-23T08:14:38.335Z,97507.83
2022-12-23T08:17:06.416Z,97511.63
2022-12-23T08:19:34.587Z,97512.80
2022-12-23T08:22:02.682Z,97514.73
2022-12-23T08:24:30.604Z,97511.40
2022-12-23T08:26:58.728Z,97514.03
2022-12-23T08:29:30.069Z,97517.73
2022-12-23T08:32:02.462Z,97520.88
2022-12-23T08:34:30.502Z,97522.24
2022-12-23T08:36:58.510Z,97510.35
2022-12-23T08:39:26.683Z,97509.32
2022-12-23T08:41:55.762Z,97512.77
2022-12-23T08:44:27.142Z,97510.08
2022-12-23T08:46:55.962Z,97507.80
2022-12-23T08:49:24.063Z,97504.11
2022-12-23T08:51:52.158Z,97501.48
2022-12-23T08:54:20.693Z,97498.50
2022-12-23T08:56:48.690Z,97489.01
2022-12-23T08:59:19.708Z,97482.09
2022-12-23T09:01:48.540Z,97477.40
2022-12-23T09:04:17.094Z,97477.21
2022-12-23T09:06:45.627Z,97478.46
2022-12-23T09:09:15.680Z,97491.06
2022-12-23T09:11:44.665Z,97492.52
2022-12-23T09:14:12.873Z,97491.65
2022-12-23T09:16:41.057Z,97492.53
2022-12-23T09:19:09.386Z,97489.17
2022-12-23T09:21:37.557Z,97486.17
2022-12-23T09:24:06.232Z,97485.97
2022-12-23T09:26:34.345Z,97477.67
2022-12-23T09:29:02.401Z,97472.64
2022-12-23T09:31:36.261Z,97469.55
2022-12-23T09:34:06.164Z,97474.35
2022-12-23T09:36:34.518Z,97468.91
2022-12-23T09:39:02.692Z,97469.45
2022-12-23T09:41:48.555Z,97471.58
2022-12-23T09:44:38.968Z,97469.13
2022-12-23T09:47:11.337Z,97460.13
2022-12-23T09:49:48.017Z,97455.21
2022-12-23T09:52:22.042Z,97458.33
2022-12-23T09:54:53.632Z,97462.34
2022-12-23T09:57:24.500Z,97460.00
2022-12-23T10:00:15.322Z,97454.55
2022-12-23T10:03:02.199Z,97457.38
2022-12-23T10:05:40.037Z,97457.89
2022-12-23T10:08:23.888Z,97453.14
2022-12-23T10:11:00.488Z,97450.88
2022-12-23T10:13:49.935Z,97448.83
2022-12-23T10:16:27.387Z,97444.90
2022-12-23T10:19:09.622Z,97446.20
2022-12-23T10:21:48.443Z,97440.04
2022-12-23T10:24:29.771Z,97438.27
2022-12-23T10:27:01.353Z,97440.06
2022-12-23T10:29:32.563Z,97443.38
2022-12-23T10:32:06.491Z,97443.62
2022-12-23T10:34:42.411Z,97445.08
2022-12-23T10:37:13.013Z,97445.16
2022-12-23T10:40:21.050Z,97441.00
2022-12-23T10:43:15.105Z,97439.75
2022-12-23T10:45:57.948Z,97440.15
2022-12-23T10:48:52.598Z,97434.23
2022-12-23T10:51:30.206Z,97432.98
2022-12-23T10:54:11.743Z,97429.63
2022-12-23T10:56:40.419Z,97432.44
2022-12-23T10:59:14.157Z,97430.21
2022-12-23T11:01:50.009Z,97431.13
2022-12-23T11:04:23.209Z,97426.41
2022-12-23T11:07:10.854Z,97427.77
2022-12-23T11:09:40.511Z,97430.17
2022-12-23T11:12:11.474Z,97426.79
2022-12-23T11:14:51.847Z,97423.42
2022-12-23T11:17:27.964Z,97420.33
2022-12-23T11:20:11.548Z,97415.33
2022-12-23T11:23:00.015Z,97417.33
2022-12-23T11:25:30.209Z,97420.48
2022-12-23T11:28:02.833Z,97421.09
2022-12-23T11:30:33.114Z,97414.85
2022-12-23T11:33:01.651Z,97414.09
2022-12-23T11:35:34.794Z,97413.30
2022-12-23T11:38:04.027Z,97412.39
2022-12-23T11:40:40.544Z,97415.02
2022-12-23T11:43:15.067Z,97411.84
2022-12-23T11:45:47.131Z,97415.81
2022-12-23T11:48:30.410Z,97405.14
2022-12-23T11:51:03.205Z,97398.73
2022-12-23T11:53:32.348Z,97399.23
2022-12-23T11:56:07.061Z,97399.64
2022-12-23T11:58:44.769Z,97398.98
2022-12-23T12:01:20.242Z,97397.01
2022-12-23T12:03:59.364Z,97399.48
2022-12-23T12:06:28.227Z,97400.55
2022-12-23T12:08:56.627Z,97403.27
2022-12-23T12:11:32.024Z,97411.71
2022-12-23T12:14:05.467Z,97416.06
2022-12-23T12:16:45.567Z,97411.35
2022-12-23T12:19:24.679Z,97408.48
2022-12-23T12:21:56.799Z,97417.16
2022-12-23T12:24:33.373Z,97426.94
2022-12-23T12:27:03.835Z,97419.52
2022-12-23T12:29:34.693Z,97419.02
2022-12-23T12:32:04.400Z,97424.77
2022-12-23T12:34:42.340Z,97423.32
2022-12-23T12:37:13.490Z,97429.09
2022-12-23T12:39:44.056Z,97430.43
2022-12-23T12:42:17.704Z,97436.79
2022-12-23T12:45:20.947Z,97433.80
2022-12-23T12:48:18.718Z,97436.04
2022-12-23T12:51:23.173Z,97430.90
2022-12-23T12:54:23.059Z,97429.98
2022-12-23T12:56:56.425Z,97425.60
2022-12-23T12:59:29.739Z,97422.69
2022-12-23T13:02:22.617Z,97428.66
2022-12-23T13:04:53.523Z,97433.12
2022-12-23T13:07:33.893Z,97434.06
2022-12-23T13:10:22.122Z,97427.17
2022-12-23T13:12:55.298Z,97418.40
2022-12-23T13:15:54.085Z,97418.35
2022-12-23T13:18:38.913Z,97417.45
2022-12-23T13:21:24.838Z,97419.81
2022-12-23T13:24:14.830Z,97421.54
2022-12-23T13:26:48.828Z,97427.19
2022-12-23T13:29:58.296Z,97431.26
2022-12-23T13:32:49.415Z,97426.71
2022-12-23T13:35:33.833Z,97426.63
2022-12-23T13:38:25.077Z,97427.91
2022-12-23T13:41:21.301Z,97429.43
2022-12-23T13:43:54.589Z,97432.30
2022-12-23T13:46:41.342Z,97435.93
2022-12-23T13:49:46.729Z,97434.77
2022-12-23T13:52:29.707Z,97430.67
2022-12-23T13:55:24.962Z,97436.63
2022-12-23T13:58:31.969Z,97438.48
2022-12-23T14:01:02.996Z,97438.27
2022-12-23T14:03:36.215Z,97436.16
2022-12-23T14:06:43.134Z,97434.82
2022-12-23T14:09:16.188Z,97436.71
2022-12-23T14:11:45.325Z,97437.86
2022-12-23T14:14:23.581Z,97441.70
2022-12-23T14:17:18.803Z,97446.52
2022-12-23T14:20:13.409Z,97449.08
2022-12-23T14:22:58.875Z,97443.87
2022-12-23T14:25:43.947Z,97436.95
2022-12-23T14:28:47.633Z,97434.60
2022-12-23T14:31:40.040Z,97429.12
2022-12-23T14:34:20.322Z,97436.16
2022-12-23T14:37:23.767Z,97430.95
2022-12-23T14:39:52.975Z,97429.87
2022-12-23T14:42:47.538Z,97427.74
2022-12-23T14:45:41.875Z,97425.52
2022-12-23T14:48:34.860Z,97431.02
2022-12-23T14:51:25.388Z,97430.96
2022-12-23T14:53:53.941Z,97421.98
2022-12-23T14:56:43.344Z,97410.56
2022-12-23T14:59:32.541Z,97408.88
2022-12-23T15:02:03.299Z,97409.70
2022-12-23T15:04:46.304Z,97407.14
2022-12-23T15:07:38.277Z,97411.63
2022-12-23T15:10:08.412Z,97408.38
2022-12-23T15:12:39.181Z,97412.13
2022-12-23T15:15:20.670Z,97422.52
2022-12-23T15:17:49.392Z,97428.14
2022-12-23T15:20:22.645Z,97434.02
2022-12-23T15:22:51.041Z,97432.26
2022-12-23T15:25:18.911Z,97427.52
2022-12-23T15:27:47.244Z,97426.02
2022-12-23T15:30:16.235Z,97420.29
2022-12-23T15:32:49.081Z,97414.20
2022-12-23T15:35:25.744Z,97412.58
2022-12-23T15:37:53.884Z,97401.17
2022-12-23T15:40:27.192Z,97395.02
2022-12-23T15:42:55.191Z,97393.04
2022-12-23T15:45:23.160Z,97397.50
2022-12-23T15:47:51.184Z,97395.59
2022-12-23T15:50:19.849Z,97403.33
2022-12-23T15:52:48.113Z,97409.42
2022-12-23T15:55:30.799Z,97407.54
2022-12-23T15:58:00.014Z,97397.56
2022-12-23T16:00:41.121Z,97393.98
2022-12-23T16:03:35.326Z,97396.87
2022-12-23T16:06:24.415Z,97398.25
2022-12-23T16:09:03.061Z,97391.59
2022-12-23T16:11:51.624Z,97390.89
2022-12-23T16:14:36.602Z,97389.81
2022-12-23T16:17:07.831Z,97385.45
2022-12-23T16:19:41.772Z,97383.91
2022-12-23T16:22:29.103Z,97378.48
2022-12-23T16:24:58.803Z,97379.41
2022-12-23T16:27:42.098Z,97373.77
2022-12-23T16:30:22.358Z,97374.67
2022-12-23T16:32:54.620Z,97377.36
2022-12-23T16:35:41.915Z,97373.20
2022-12-23T16:38:17.898Z,97372.96
2022-12-23T16:40:48.413Z,97372.61
2022-12-23T16:43:18.023Z,97376.94
2022-12-23T16:45:50.317Z,97376.42
2022-12-23T16:48:39.328Z,97380.69
2022-12-23T16:51:09.476Z,97383.89
2022-12-23T16:53:37.646Z,97382.02
2022-12-23T16:56:16.911Z,97380.21
2022-12-23T16:58:45.587Z,97376.14
2022-12-23T17:01:16.223Z,97369.52
2022-12-23T17:03:44.424Z,97363.63
2022-12-23T17:06:16.588Z,97361.92
2022-12-23T17:08:44.771Z,97355.33
2022-12-23T17:11:19.053Z,97353.23
2022-12-23T17:13:47.219Z,97361.73
2022-12-23T17:16:21.941Z,97357.23
2022-12-23T17:18:53.334Z,97356.19
2022-12-23T17:21:24.907Z,97355.02
2022-12-23T17:23:56.795Z,97355.77
2022-12-23T17:26:24.838Z,97354.94
2022-12-23T17:28:52.798Z,97360.92
2022-12-23T17:31:26.496Z,97362.83
2022-12-23T17:33:55.221Z,97359.91
2022-12-23T17:36:23.304Z,97360.41
2022-12-23T17:38:51.498Z,97359.77
2022-12-23T17:41:30.975Z,97362.80
2022-12-23T17:43:59.520Z,97366.17
2022-12-23T17:46:27.552Z,97365.30
2022-12-23T17:48:57.319Z,97365.13
2022-12-23T17:51:26.552Z,97370.27
2022-12-23T17:53:58.032Z,97370.59
2022-12-23T17:56:28.309Z,97372.02
2022-12-23T17:58:56.408Z,97370.27
2022-12-23T18:01:30.014Z,97369.83
2022-12-23T18:03:59.942Z,97367.93
2022-12-23T18:06:29.175Z,97367.05
2022-12-23T18:08:58.020Z,97363.94
2022-12-23T18:11:42.017Z,97357.39
2022-12-23T18:14:28.022Z,97353.77
2022-12-23T18:16:56.340Z,97359.29
2022-12-23T18:19:24.493Z,97356.83
2022-12-23T18:21:52.640Z,97351.79
2022-12-23T18:24:20.809Z,97351.29
2022-12-23T18:26:48.972Z,97353.00
2022-12-23T18:29:17.013Z,97353.91
2022-12-23T18:31:52.130Z,97349.41
2022-12-23T18:34:21.298Z,97342.65
2022-12-23T18:36:51.953Z,97336.98
2022-12-23T18:39:21.146Z,97329.94
2022-12-23T18:41:49.211Z,97335.43
2022-12-23T18:44:21.373Z,97331.78
2022-12-23T18:46:50.316Z,97327.14
2022-12-23T18:49:18.739Z,97329.45
2022-12-23T18:51:47.037Z,97334.10
2022-12-23T18:54:16.255Z,97336.61
2022-12-23T18:56:44.731Z,97336.10
2022-12-23T18:59:15.422Z,97334.63
2022-12-23T19:01:43.544Z,97338.94
2022-12-23T19:04:11.597Z,97339.02
2022-12-23T19:06:40.346Z,97340.93
2022-12-23T19:09:10.184Z,97342.48
2022-12-23T19:11:38.114Z,97344.45
2022-12-23T19:14:06.172Z,97351.50
2022-12-23T19:16:34.330Z,97348.62
2022-12-23T19:19:02.424Z,97344.60
2022-12-23T19:21:30.443Z,97338.42
2022-12-23T19:23:58.569Z,97338.40
2022-12-23T19:26:26.552Z,97345.63
2022-12-23T19:28:54.613Z,97340.95
2022-12-23T19:31:23.343Z,97341.54
2022-12-23T19:33:51.438Z,97341.70
2022-12-23T19:36:24.294Z,97340.25
2022-12-23T19:38:52.360Z,97336.32
2022-12-23T19:41:20.408Z,97334.71
2022-12-23T19:43:48.562Z,97331.99
2022-12-23T19:46:17.031Z,97332.73
2022-12-23T19:48:51.609Z,97333.86
2022-12-23T19:51:19.570Z,97331.23
2022-12-23T19:53:50.227Z,97326.98
2022-12-23T19:56:22.108Z,97331.36
2022-12-23T19:58:50.160Z,97339.56
2022-12-23T20:01:21.092Z,97337.92
2022-12-23T20:03:49.921Z,97331.77
2022-12-23T20:06:27.067Z,97331.88
2022-12-23T20:09:00.312Z,97337.46
2022-12-23T20:11:31.981Z,97325.67
2022-12-23T20:14:00.915Z,97323.69
2022-12-23T20:16:29.951Z,97330.98
2022-12-23T20:18:58.174Z,97331.81
2022-12-23T20:21:26.184Z,97330.14
2022-12-23T20:23:54.214Z,97330.39
2022-12-23T20:26:23.921Z,97334.92
2022-12-23T20:28:52.010Z,97337.30
2022-12-23T20:31:22.844Z,97332.13
2022-12-23T20:33:52.438Z,97335.27
2022-12-23T20:36:23.075Z,97332.59
2022-12-23T20:38:52.307Z,97337.36
2022-12-23T20:41:23.877Z,97334.95
2022-12-23T20:44:31.810Z,97338.50
2022-12-23T20:46:40.729Z,97343.39
2022-12-23T20:49:08.782Z,97349.48
2022-12-23T20:51:36.817Z,97352.29
2022-12-23T20:54:04.896Z,97352.22
2022-12-23T20:56:32.894Z,97350.48
2022-12-23T20:59:04.161Z,97355.95
2022-12-23T21:01:38.188Z,97355.70
2022-12-23T21:04:08.886Z,97364.51
2022-12-23T21:06:37.312Z,97361.52
2022-12-23T21:09:07.329Z,97362.79
2022-12-23T21:11:38.582Z,97364.43
2022-12-23T21:14:08.061Z,97363.52
2022-12-23T21:16:37.965Z,97362.13
2022-12-23T21:19:08.162Z,97370.35
2022-12-23T21:21:36.273Z,97373.11
2022-12-23T21:24:05.031Z,97373.59
2022-12-23T21:26:34.713Z,97368.34
2022-12-23T21:29:04.885Z,97365.98
2022-12-23T21:31:35.326Z,97369.63
2022-12-23T21:34:04.002Z,97371.83
2022-12-23T21:36:34.565Z,97371.11
2022-12-23T21:39:04.238Z,97374.05
2022-12-23T21:41:38.193Z,97367.74
2022-12-23T21:44:06.523Z,97357.41
2022-12-23T21:46:34.867Z,97355.11
2022-12-23T21:49:03.433Z,97359.56
2022-12-23T21:51:39.587Z,97362.11
2022-12-23T21:54:10.777Z,97364.43
2022-12-23T21:56:40.177Z,97355.77
2022-12-23T21:59:11.970Z,97350.84
2022-12-23T22:01:40.997Z,97350.77
2022-12-23T22:04:08.994Z,97355.98
2022-12-23T22:06:40.309Z,97351.52
2022-12-23T22:09:10.203Z,97341.71
2022-12-23T22:11:38.680Z,97337.30
2022-12-23T22:14:07.476Z,97337.89
2022-12-23T22:16:36.206Z,97342.80
2022-12-23T22:19:06.271Z,97348.55
2022-12-23T22:21:35.610Z,97344.17
2022-12-23T22:24:03.817Z,97342.33
2022-12-23T22:26:33.057Z,97337.77
2022-12-23T22:29:03.359Z,97335.01
2022-12-23T22:31:33.859Z,97334.29
2022-12-23T22:34:02.528Z,97341.65
2022-12-23T22:36:31.810Z,97332.61
2022-12-23T22:39:01.501Z,97324.01
2022-12-23T22:41:30.600Z,97336.75
2022-12-23T22:43:59.616Z,97336.60
2022-12-23T22:46:28.193Z,97324.08
2022-12-23T22:48:56.655Z,97318.39
2022-12-23T22:51:31.692Z,97318.59
2022-12-23T22:54:02.919Z,97312.45
2022-12-23T22:56:30.999Z,97309.61
2022-12-23T22:58:59.071Z,97308.70
2022-12-23T23:01:29.529Z,97300.90
2022-12-23T23:03:59.804Z,97301.05
2022-12-23T23:06:33.093Z,97312.35
2022-12-23T23:09:01.435Z,97299.74
2022-12-23T23:11:29.911Z,97292.84
2022-12-23T23:13:57.895Z,97299.83
2022-12-23T23:16:26.809Z,97304.20
2022-12-23T23:18:55.425Z,97311.36
2022-12-23T23:21:23.532Z,97311.85
2022-12-23T23:23:52.453Z,97318.94
2022-12-23T23:26:21.339Z,97306.88
2022-12-23T23:28:49.443Z,97298.31
2022-12-23T23:31:41.350Z,97302.02
2022-12-23T23:34:05.583Z,97291.30
2022-12-23T23:36:34.046Z,97294.56
2022-12-23T23:39:02.205Z,97300.33
2022-12-23T23:41:30.228Z,97307.52
2022-12-23T23:43:58.304Z,97310.95
2022-12-23T23:46:26.369Z,97308.38
2022-12-23T23:48:54.366Z,97302.09
2022-12-23T23:51:22.294Z,97308.77
2022-12-23T23:53:50.276Z,97314.64
2022-12-23T23:56:24.811Z,97309.73
2022-12-23T23:58:54.350Z,97315.58
